sensor_id;sensor_type;location;lat;lon;timestamp;pressure;altitude;pressure_sealevel;temperature;humidity
60646;BME280;46462;32.608;-117.032;2023-06-22T00:00:56;99279.08;;;24.84;42.04
60646;BME280;46462;32.608;-117.032;2023-06-22T00:03:26;99277.63;;;24.89;42.12
60646;BME280;46462;32.608;-117.032;2023-06-22T00:05:57;99277.91;;;24.92;42.16
60646;BME280;46462;32.608;-117.032;2023-06-22T00:08:27;99276.12;;;25.00;42.14
60646;BME280;46462;32.608;-117.032;2023-06-22T00:10:58;99275.73;;;25.08;42.04
60646;BME280;46462;32.608;-117.032;2023-06-22T00:13:29;99273.53;;;25.10;42.08
60646;BME280;46462;32.608;-117.032;2023-06-22T00:15:59;99266.56;;;25.12;42.16
60646;BME280;46462;32.608;-117.032;2023-06-22T00:18:30;99266.07;;;25.17;42.16
60646;BME280;46462;32.608;-117.032;2023-06-22T00:21:01;99263.04;;;25.17;42.20
60646;BME280;46462;32.608;-117.032;2023-06-22T00:23:31;99262.77;;;25.19;42.26
60646;BME280;46462;32.608;-117.032;2023-06-22T00:26:02;99260.22;;;25.20;42.36
60646;BME280;46462;32.608;-117.032;2023-06-22T00:28:33;99257.63;;;25.22;42.43
60646;BME280;46462;32.608;-117.032;2023-06-22T00:31:03;99255.63;;;25.24;42.52
60646;BME280;46462;32.608;-117.032;2023-06-22T00:33:34;99254.80;;;25.26;42.63
60646;BME280;46462;32.608;-117.032;2023-06-22T00:36:05;99248.35;;;25.30;42.65
60646;BME280;46462;32.608;-117.032;2023-06-22T00:38:35;99246.56;;;25.33;42.78
60646;BME280;46462;32.608;-117.032;2023-06-22T00:41:06;99245.12;;;25.33;42.82
60646;BME280;46462;32.608;-117.032;2023-06-22T00:43:37;99243.52;;;25.35;42.87
60646;BME280;46462;32.608;-117.032;2023-06-22T00:46:08;99244.12;;;25.35;42.99
60646;BME280;46462;32.608;-117.032;2023-06-22T00:48:38;99247.03;;;25.37;43.06
60646;BME280;46462;32.608;-117.032;2023-06-22T00:51:09;99246.70;;;25.39;43.17
60646;BME280;46462;32.608;-117.032;2023-06-22T00:53:40;99245.93;;;25.40;43.19
60646;BME280;46462;32.608;-117.032;2023-06-22T00:56:10;99243.34;;;25.41;43.34
60646;BME280;46462;32.608;-117.032;2023-06-22T00:58:41;99240.93;;;25.42;43.43
60646;BME280;46462;32.608;-117.032;2023-06-22T01:01:11;99240.96;;;25.44;43.48
60646;BME280;46462;32.608;-117.032;2023-06-22T01:03:42;99241.91;;;25.48;43.46
60646;BME280;46462;32.608;-117.032;2023-06-22T01:06:18;99238.01;;;25.49;43.53
60646;BME280;46462;32.608;-117.032;2023-06-22T01:08:51;99241.81;;;25.54;43.48
60646;BME280;46462;32.608;-117.032;2023-06-22T01:11:18;99243.70;;;25.54;43.54
60646;BME280;46462;32.608;-117.032;2023-06-22T01:13:50;99245.66;;;25.55;43.62
60646;BME280;46462;32.608;-117.032;2023-06-22T01:16:19;99245.09;;;25.54;43.68
60646;BME280;46462;32.608;-117.032;2023-06-22T01:18:48;99246.41;;;25.53;43.83
60646;BME280;46462;32.608;-117.032;2023-06-22T01:21:19;99254.09;;;25.55;43.89
60646;BME280;46462;32.608;-117.032;2023-06-22T01:23:56;99254.05;;;25.55;43.92
60646;BME280;46462;32.608;-117.032;2023-06-22T01:26:20;99253.30;;;25.59;43.89
60646;BME280;46462;32.608;-117.032;2023-06-22T01:28:50;99258.32;;;25.61;43.93
60646;BME280;46462;32.608;-117.032;2023-06-22T01:31:23;99256.48;;;25.61;44.02
60646;BME280;46462;32.608;-117.032;2023-06-22T01:33:54;99254.10;;;25.60;44.06
60646;BME280;46462;32.608;-117.032;2023-06-22T01:36:22;99255.45;;;25.61;44.13
60646;BME280;46462;32.608;-117.032;2023-06-22T01:38:53;99259.01;;;25.63;44.19
60646;BME280;46462;32.608;-117.032;2023-06-22T01:41:24;99254.84;;;25.64;44.19
60646;BME280;46462;32.608;-117.032;2023-06-22T01:43:53;99257.88;;;25.65;44.24
60646;BME280;46462;32.608;-117.032;2023-06-22T01:46:24;99256.10;;;25.66;44.25
60646;BME280;46462;32.608;-117.032;2023-06-22T01:48:54;99257.37;;;25.67;44.26
60646;BME280;46462;32.608;-117.032;2023-06-22T01:51:25;99258.61;;;25.66;44.34
60646;BME280;46462;32.608;-117.032;2023-06-22T01:53:56;99262.40;;;25.66;44.43
60646;BME280;46462;32.608;-117.032;2023-06-22T01:56:26;99263.17;;;25.67;44.45
60646;BME280;46462;32.608;-117.032;2023-06-22T01:59:01;99262.76;;;25.67;44.57
60646;BME280;46462;32.608;-117.032;2023-06-22T02:01:39;99262.67;;;25.71;44.55
60646;BME280;46462;32.608;-117.032;2023-06-22T02:04:03;99264.89;;;25.71;44.65
60646;BME280;46462;32.608;-117.032;2023-06-22T02:06:33;99262.22;;;25.73;44.69
60646;BME280;46462;32.608;-117.032;2023-06-22T02:09:02;99260.19;;;25.72;44.76
60646;BME280;46462;32.608;-117.032;2023-06-22T02:11:30;99260.92;;;25.74;44.75
60646;BME280;46462;32.608;-117.032;2023-06-22T02:14:00;99262.20;;;25.76;44.72
60646;BME280;46462;32.608;-117.032;2023-06-22T02:16:32;99263.48;;;25.79;44.66
60646;BME280;46462;32.608;-117.032;2023-06-22T02:19:03;99264.26;;;25.80;44.66
60646;BME280;46462;32.608;-117.032;2023-06-22T02:21:33;99261.57;;;25.82;44.66
60646;BME280;46462;32.608;-117.032;2023-06-22T02:24:04;99260.55;;;25.83;44.70
60646;BME280;46462;32.608;-117.032;2023-06-22T02:26:34;99259.82;;;25.84;44.77
60646;BME280;46462;32.608;-117.032;2023-06-22T02:29:04;99264.03;;;25.83;44.86
60646;BME280;46462;32.608;-117.032;2023-06-22T02:31:35;99261.68;;;25.82;44.91
60646;BME280;46462;32.608;-117.032;2023-06-22T02:34:06;99258.65;;;25.80;44.94
60646;BME280;46462;32.608;-117.032;2023-06-22T02:36:36;99261.34;;;25.81;44.99
60646;BME280;46462;32.608;-117.032;2023-06-22T02:39:07;99266.38;;;25.82;45.06
60646;BME280;46462;32.608;-117.032;2023-06-22T02:41:38;99265.89;;;25.82;45.19
60646;BME280;46462;32.608;-117.032;2023-06-22T02:44:08;99263.16;;;25.82;45.17
60646;BME280;46462;32.608;-117.032;2023-06-22T02:46:39;99263.25;;;25.81;45.33
60646;BME280;46462;32.608;-117.032;2023-06-22T02:49:10;99266.79;;;25.82;45.30
60646;BME280;46462;32.608;-117.032;2023-06-22T02:51:45;99267.07;;;25.83;45.32
60646;BME280;46462;32.608;-117.032;2023-06-22T02:54:11;99270.47;;;25.81;45.55
60646;BME280;46462;32.608;-117.032;2023-06-22T02:56:42;99266.82;;;25.83;45.49
60646;BME280;46462;32.608;-117.032;2023-06-22T02:59:12;99267.56;;;25.85;45.52
60646;BME280;46462;32.608;-117.032;2023-06-22T03:01:43;99272.64;;;25.83;45.68
60646;BME280;46462;32.608;-117.032;2023-06-22T03:04:14;99273.91;;;25.83;45.64
60646;BME280;46462;32.608;-117.032;2023-06-22T03:06:44;99271.26;;;25.83;45.73
60646;BME280;46462;32.608;-117.032;2023-06-22T03:09:15;99267.79;;;25.82;45.83
60646;BME280;46462;32.608;-117.032;2023-06-22T03:11:46;99269.97;;;25.82;45.81
60646;BME280;46462;32.608;-117.032;2023-06-22T03:14:16;99270.19;;;25.81;45.82
60646;BME280;46462;32.608;-117.032;2023-06-22T03:16:47;99271.59;;;25.79;45.93
60646;BME280;46462;32.608;-117.032;2023-06-22T03:19:18;99273.85;;;25.75;46.06
60646;BME280;46462;32.608;-117.032;2023-06-22T03:21:48;99272.02;;;25.74;46.13
60646;BME280;46462;32.608;-117.032;2023-06-22T03:24:19;99274.63;;;25.74;46.16
60646;BME280;46462;32.608;-117.032;2023-06-22T03:26:49;99277.28;;;25.74;46.21
60646;BME280;46462;32.608;-117.032;2023-06-22T03:29:20;99281.94;;;25.73;46.22
60646;BME280;46462;32.608;-117.032;2023-06-22T03:31:51;99288.93;;;25.73;46.27
60646;BME280;46462;32.608;-117.032;2023-06-22T03:34:21;99291.96;;;25.72;46.31
60646;BME280;46462;32.608;-117.032;2023-06-22T03:36:52;99292.91;;;25.73;46.29
60646;BME280;46462;32.608;-117.032;2023-06-22T03:39:22;99291.74;;;25.72;46.44
60646;BME280;46462;32.608;-117.032;2023-06-22T03:41:53;99290.78;;;25.73;46.32
60646;BME280;46462;32.608;-117.032;2023-06-22T03:44:24;99292.74;;;25.73;46.58
60646;BME280;46462;32.608;-117.032;2023-06-22T03:46:54;99290.24;;;25.72;46.67
60646;BME280;46462;32.608;-117.032;2023-06-22T03:49:25;99292.87;;;25.71;46.72
60646;BME280;46462;32.608;-117.032;2023-06-22T03:51:56;99295.04;;;25.72;46.69
60646;BME280;46462;32.608;-117.032;2023-06-22T03:54:27;99294.96;;;25.71;46.79
60646;BME280;46462;32.608;-117.032;2023-06-22T03:56:58;99299.25;;;25.73;46.68
60646;BME280;46462;32.608;-117.032;2023-06-22T03:59:28;99308.41;;;25.69;46.88
60646;BME280;46462;32.608;-117.032;2023-06-22T04:01:59;99304.34;;;25.72;46.88
60646;BME280;46462;32.608;-117.032;2023-06-22T04:04:29;99306.08;;;25.73;46.80
60646;BME280;46462;32.608;-117.032;2023-06-22T04:07:00;99305.32;;;25.76;46.75
60646;BME280;46462;32.608;-117.032;2023-06-22T04:09:30;99309.99;;;25.79;46.70
60646;BME280;46462;32.608;-117.032;2023-06-22T04:12:02;99319.11;;;25.79;46.69
60646;BME280;46462;32.608;-117.032;2023-06-22T04:14:32;99320.91;;;25.77;46.77
60646;BME280;46462;32.608;-117.032;2023-06-22T04:17:03;99318.67;;;25.80;46.58
60646;BME280;46462;32.608;-117.032;2023-06-22T04:19:33;99322.23;;;25.80;46.81
60646;BME280;46462;32.608;-117.032;2023-06-22T04:22:04;99317.65;;;25.80;46.72
60646;BME280;46462;32.608;-117.032;2023-06-22T04:24:34;99325.22;;;25.79;46.83
60646;BME280;46462;32.608;-117.032;2023-06-22T04:27:06;99326.80;;;25.80;46.84
60646;BME280;46462;32.608;-117.032;2023-06-22T04:29:37;99323.83;;;25.79;46.67
60646;BME280;46462;32.608;-117.032;2023-06-22T04:32:07;99321.21;;;25.80;46.67
60646;BME280;46462;32.608;-117.032;2023-06-22T04:34:37;99319.90;;;25.79;46.86
60646;BME280;46462;32.608;-117.032;2023-06-22T04:37:08;99325.03;;;25.77;47.02
60646;BME280;46462;32.608;-117.032;2023-06-22T04:39:38;99328.12;;;25.73;46.92
60646;BME280;46462;32.608;-117.032;2023-06-22T04:42:09;99324.31;;;25.75;47.03
60646;BME280;46462;32.608;-117.032;2023-06-22T04:44:40;99327.39;;;25.75;47.05
60646;BME280;46462;32.608;-117.032;2023-06-22T04:47:11;99334.77;;;25.78;47.01
60646;BME280;46462;32.608;-117.032;2023-06-22T04:49:42;99334.43;;;25.77;47.12
60646;BME280;46462;32.608;-117.032;2023-06-22T04:52:13;99336.73;;;25.78;46.92
60646;BME280;46462;32.608;-117.032;2023-06-22T04:54:42;99332.39;;;25.76;47.04
60646;BME280;46462;32.608;-117.032;2023-06-22T04:57:13;99342.02;;;25.78;46.94
60646;BME280;46462;32.608;-117.032;2023-06-22T04:59:44;99341.52;;;25.76;47.14
60646;BME280;46462;32.608;-117.032;2023-06-22T05:02:15;99342.54;;;25.78;46.97
60646;BME280;46462;32.608;-117.032;2023-06-22T05:04:45;99342.14;;;25.73;47.09
60646;BME280;46462;32.608;-117.032;2023-06-22T05:07:16;99336.88;;;25.80;46.98
60646;BME280;46462;32.608;-117.032;2023-06-22T05:09:46;99344.04;;;25.79;46.93
60646;BME280;46462;32.608;-117.032;2023-06-22T05:12:17;99331.84;;;25.80;46.92
60646;BME280;46462;32.608;-117.032;2023-06-22T05:14:48;99333.67;;;25.79;46.90
60646;BME280;46462;32.608;-117.032;2023-06-22T05:17:18;99335.97;;;25.73;47.14
60646;BME280;46462;32.608;-117.032;2023-06-22T05:19:49;99335.93;;;25.70;47.18
60646;BME280;46462;32.608;-117.032;2023-06-22T05:22:20;99333.15;;;25.69;47.25
60646;BME280;46462;32.608;-117.032;2023-06-22T05:24:50;99332.80;;;25.65;47.28
60646;BME280;46462;32.608;-117.032;2023-06-22T05:27:26;99327.32;;;25.67;47.29
60646;BME280;46462;32.608;-117.032;2023-06-22T05:29:51;99328.50;;;25.64;47.32
60646;BME280;46462;32.608;-117.032;2023-06-22T05:32:22;99327.75;;;25.65;47.36
60646;BME280;46462;32.608;-117.032;2023-06-22T05:34:53;99326.29;;;25.60;47.44
60646;BME280;46462;32.608;-117.032;2023-06-22T05:37:29;99321.26;;;25.62;47.40
60646;BME280;46462;32.608;-117.032;2023-06-22T05:39:54;99321.57;;;25.61;47.43
60646;BME280;46462;32.608;-117.032;2023-06-22T05:42:25;99319.31;;;25.64;47.36
60646;BME280;46462;32.608;-117.032;2023-06-22T05:44:56;99324.61;;;25.61;47.46
60646;BME280;46462;32.608;-117.032;2023-06-22T05:47:26;99323.83;;;25.64;47.42
60646;BME280;46462;32.608;-117.032;2023-06-22T05:49:57;99329.00;;;25.60;47.47
60646;BME280;46462;32.608;-117.032;2023-06-22T05:52:28;99331.11;;;25.61;47.47
60646;BME280;46462;32.608;-117.032;2023-06-22T05:54:58;99333.86;;;25.59;47.48
60646;BME280;46462;32.608;-117.032;2023-06-22T05:57:28;99333.62;;;25.57;47.49
60646;BME280;46462;32.608;-117.032;2023-06-22T05:59:59;99335.67;;;25.55;47.56
60646;BME280;46462;32.608;-117.032;2023-06-22T06:02:30;99339.62;;;25.55;47.45
60646;BME280;46462;32.608;-117.032;2023-06-22T06:05:00;99339.72;;;25.55;47.38
60646;BME280;46462;32.608;-117.032;2023-06-22T06:07:31;99346.92;;;25.59;47.29
60646;BME280;46462;32.608;-117.032;2023-06-22T06:10:02;99350.50;;;25.54;47.39
60646;BME280;46462;32.608;-117.032;2023-06-22T06:12:32;99350.43;;;25.55;47.34
60646;BME280;46462;32.608;-117.032;2023-06-22T06:15:08;99355.85;;;25.52;47.39
60646;BME280;46462;32.608;-117.032;2023-06-22T06:17:46;99353.95;;;25.53;47.46
60646;BME280;46462;32.608;-117.032;2023-06-22T06:20:08;99346.80;;;25.51;47.49
60646;BME280;46462;32.608;-117.032;2023-06-22T06:22:38;99351.99;;;25.51;47.48
60646;BME280;46462;32.608;-117.032;2023-06-22T06:25:08;99355.82;;;25.49;47.46
60646;BME280;46462;32.608;-117.032;2023-06-22T06:27:38;99361.73;;;25.51;47.40
60646;BME280;46462;32.608;-117.032;2023-06-22T06:30:15;99357.91;;;25.49;47.54
60646;BME280;46462;32.608;-117.032;2023-06-22T06:32:40;99356.69;;;25.49;47.46
60646;BME280;46462;32.608;-117.032;2023-06-22T06:35:10;99346.17;;;25.47;47.56
60646;BME280;46462;32.608;-117.032;2023-06-22T06:37:43;99334.83;;;25.49;47.50
60646;BME280;46462;32.608;-117.032;2023-06-22T06:40:18;99335.86;;;25.44;47.62
60646;BME280;46462;32.608;-117.032;2023-06-22T06:42:49;99343.86;;;25.47;47.55
60646;BME280;46462;32.608;-117.032;2023-06-22T06:45:19;99344.31;;;25.48;47.48
60646;BME280;46462;32.608;-117.032;2023-06-22T06:47:49;99346.21;;;25.50;47.38
60646;BME280;46462;32.608;-117.032;2023-06-22T06:50:20;99345.65;;;25.47;47.39
60646;BME280;46462;32.608;-117.032;2023-06-22T06:52:51;99342.78;;;25.51;47.29
60646;BME280;46462;32.608;-117.032;2023-06-22T06:55:21;99336.71;;;25.48;47.34
60646;BME280;46462;32.608;-117.032;2023-06-22T06:57:52;99329.99;;;25.50;47.25
60646;BME280;46462;32.608;-117.032;2023-06-22T07:00:22;99321.00;;;25.50;47.24
60646;BME280;46462;32.608;-117.032;2023-06-22T07:02:53;99320.13;;;25.50;47.17
60646;BME280;46462;32.608;-117.032;2023-06-22T07:05:23;99319.38;;;25.49;47.19
60646;BME280;46462;32.608;-117.032;2023-06-22T07:07:54;99327.27;;;25.52;47.08
60646;BME280;46462;32.608;-117.032;2023-06-22T07:10:25;99325.73;;;25.46;47.21
60646;BME280;46462;32.608;-117.032;2023-06-22T07:12:55;99332.00;;;25.45;47.17
60646;BME280;46462;32.608;-117.032;2023-06-22T07:15:26;99333.23;;;25.42;47.21
60646;BME280;46462;32.608;-117.032;2023-06-22T07:18:02;99326.14;;;25.41;47.17
60646;BME280;46462;32.608;-117.032;2023-06-22T07:20:27;99319.77;;;25.37;47.25
60646;BME280;46462;32.608;-117.032;2023-06-22T07:23:03;99313.34;;;25.38;47.21
60646;BME280;46462;32.608;-117.032;2023-06-22T07:25:28;99315.67;;;25.33;47.42
60646;BME280;46462;32.608;-117.032;2023-06-22T07:28:01;99316.90;;;25.33;47.23
60646;BME280;46462;32.608;-117.032;2023-06-22T07:30:30;99319.23;;;25.28;47.34
60646;BME280;46462;32.608;-117.032;2023-06-22T07:33:06;99322.30;;;25.32;47.21
60646;BME280;46462;32.608;-117.032;2023-06-22T07:35:32;99321.19;;;25.29;47.30
60646;BME280;46462;32.608;-117.032;2023-06-22T07:38:02;99309.70;;;25.32;47.22
60646;BME280;46462;32.608;-117.032;2023-06-22T07:40:33;99298.30;;;25.31;47.23
60646;BME280;46462;32.608;-117.032;2023-06-22T07:43:03;99296.12;;;25.29;47.26
60646;BME280;46462;32.608;-117.032;2023-06-22T07:45:34;99295.59;;;25.28;47.23
60646;BME280;46462;32.608;-117.032;2023-06-22T07:48:05;99297.68;;;25.26;47.32
60646;BME280;46462;32.608;-117.032;2023-06-22T07:50:35;99293.66;;;25.25;47.34
60646;BME280;46462;32.608;-117.032;2023-06-22T07:53:06;99293.28;;;25.28;47.17
60646;BME280;46462;32.608;-117.032;2023-06-22T07:55:36;99289.95;;;25.24;47.28
60646;BME280;46462;32.608;-117.032;2023-06-22T07:58:07;99292.49;;;25.24;47.25
60646;BME280;46462;32.608;-117.032;2023-06-22T08:00:38;99286.37;;;25.23;47.31
60646;BME280;46462;32.608;-117.032;2023-06-22T08:03:08;99281.56;;;25.24;47.19
60646;BME280;46462;32.608;-117.032;2023-06-22T08:05:39;99276.83;;;25.25;47.15
60646;BME280;46462;32.608;-117.032;2023-06-22T08:08:10;99284.21;;;25.27;47.07
60646;BME280;46462;32.608;-117.032;2023-06-22T08:10:40;99283.40;;;25.26;47.03
60646;BME280;46462;32.608;-117.032;2023-06-22T08:13:11;99282.45;;;25.31;46.95
60646;BME280;46462;32.608;-117.032;2023-06-22T08:15:47;99283.68;;;25.32;46.78
60646;BME280;46462;32.608;-117.032;2023-06-22T08:18:13;99277.75;;;25.34;46.75
60646;BME280;46462;32.608;-117.032;2023-06-22T08:20:43;99269.78;;;25.30;46.82
60646;BME280;46462;32.608;-117.032;2023-06-22T08:23:14;99272.11;;;25.31;46.76
60646;BME280;46462;32.608;-117.032;2023-06-22T08:25:44;99282.44;;;25.30;46.75
60646;BME280;46462;32.608;-117.032;2023-06-22T08:28:15;99282.83;;;25.32;46.75
60646;BME280;46462;32.608;-117.032;2023-06-22T08:30:51;99278.56;;;25.28;46.78
60646;BME280;46462;32.608;-117.032;2023-06-22T08:33:17;99276.25;;;25.30;46.69
60646;BME280;46462;32.608;-117.032;2023-06-22T08:35:47;99282.41;;;25.27;46.71
60646;BME280;46462;32.608;-117.032;2023-06-22T08:38:18;99280.35;;;25.28;46.63
60646;BME280;46462;32.608;-117.032;2023-06-22T08:40:49;99278.15;;;25.28;46.63
60646;BME280;46462;32.608;-117.032;2023-06-22T08:43:19;99270.53;;;25.25;46.66
60646;BME280;46462;32.608;-117.032;2023-06-22T08:45:50;99271.88;;;25.26;46.57
60646;BME280;46462;32.608;-117.032;2023-06-22T08:48:21;99272.52;;;25.25;46.63
60646;BME280;46462;32.608;-117.032;2023-06-22T08:50:51;99263.58;;;25.25;46.57
60646;BME280;46462;32.608;-117.032;2023-06-22T08:53:22;99262.41;;;25.23;46.57
60646;BME280;46462;32.608;-117.032;2023-06-22T08:55:53;99261.55;;;25.24;46.52
60646;BME280;46462;32.608;-117.032;2023-06-22T08:58:23;99263.59;;;25.25;46.45
60646;BME280;46462;32.608;-117.032;2023-06-22T09:00:54;99261.47;;;25.21;46.60
60646;BME280;46462;32.608;-117.032;2023-06-22T09:03:25;99264.71;;;25.21;46.47
60646;BME280;46462;32.608;-117.032;2023-06-22T09:05:55;99267.08;;;25.18;46.60
60646;BME280;46462;32.608;-117.032;2023-06-22T09:08:26;99268.32;;;25.15;46.80
60646;BME280;46462;32.608;-117.032;2023-06-22T09:10:57;99266.72;;;25.15;46.80
60646;BME280;46462;32.608;-117.032;2023-06-22T09:13:30;99261.23;;;25.14;46.82
60646;BME280;46462;32.608;-117.032;2023-06-22T09:15:58;99262.57;;;25.13;46.68
60646;BME280;46462;32.608;-117.032;2023-06-22T09:18:28;99258.32;;;25.12;46.75
60646;BME280;46462;32.608;-117.032;2023-06-22T09:20:59;99259.99;;;25.09;46.82
60646;BME280;46462;32.608;-117.032;2023-06-22T09:23:30;99253.01;;;25.06;46.78
60646;BME280;46462;32.608;-117.032;2023-06-22T09:26:00;99264.10;;;25.07;46.74
60646;BME280;46462;32.608;-117.032;2023-06-22T09:28:36;99269.20;;;25.06;46.69
60646;BME280;46462;32.608;-117.032;2023-06-22T09:31:02;99264.32;;;25.02;46.73
60646;BME280;46462;32.608;-117.032;2023-06-22T09:33:32;99262.39;;;25.05;46.67
60646;BME280;46462;32.608;-117.032;2023-06-22T09:36:04;99268.85;;;25.04;46.67
60646;BME280;46462;32.608;-117.032;2023-06-22T09:38:35;99267.78;;;25.04;46.71
60646;BME280;46462;32.608;-117.032;2023-06-22T09:41:09;99270.01;;;25.05;46.63
60646;BME280;46462;32.608;-117.032;2023-06-22T09:43:36;99278.62;;;25.02;46.63
60646;BME280;46462;32.608;-117.032;2023-06-22T09:46:06;99271.69;;;25.00;46.58
60646;BME280;46462;32.608;-117.032;2023-06-22T09:48:37;99265.06;;;25.02;46.50
60646;BME280;46462;32.608;-117.032;2023-06-22T09:51:07;99261.23;;;25.00;46.53
60646;BME280;46462;32.608;-117.032;2023-06-22T09:53:38;99256.02;;;25.00;46.61
60646;BME280;46462;32.608;-117.032;2023-06-22T09:56:10;99262.56;;;24.98;46.69
60646;BME280;46462;32.608;-117.032;2023-06-22T09:58:39;99262.24;;;24.95;46.71
60646;BME280;46462;32.608;-117.032;2023-06-22T10:01:10;99254.95;;;24.96;46.67
60646;BME280;46462;32.608;-117.032;2023-06-22T10:03:41;99251.72;;;24.96;46.61
60646;BME280;46462;32.608;-117.032;2023-06-22T10:06:11;99258.91;;;24.95;46.67
60646;BME280;46462;32.608;-117.032;2023-06-22T10:08:42;99260.26;;;24.95;46.65
60646;BME280;46462;32.608;-117.032;2023-06-22T10:11:13;99262.84;;;24.93;46.62
60646;BME280;46462;32.608;-117.032;2023-06-22T10:13:49;99267.54;;;24.98;46.50
60646;BME280;46462;32.608;-117.032;2023-06-22T10:16:15;99268.19;;;25.00;46.36
60646;BME280;46462;32.608;-117.032;2023-06-22T10:18:45;99269.74;;;25.00;46.38
60646;BME280;46462;32.608;-117.032;2023-06-22T10:21:15;99266.90;;;25.00;46.28
60646;BME280;46462;32.608;-117.032;2023-06-22T10:23:46;99262.24;;;24.98;46.32
60646;BME280;46462;32.608;-117.032;2023-06-22T10:26:17;99264.97;;;24.98;46.30
60646;BME280;46462;32.608;-117.032;2023-06-22T10:28:48;99264.85;;;24.95;46.22
60646;BME280;46462;32.608;-117.032;2023-06-22T10:31:24;99261.79;;;24.95;46.24
60646;BME280;46462;32.608;-117.032;2023-06-22T10:33:49;99258.10;;;24.93;46.19
60646;BME280;46462;32.608;-117.032;2023-06-22T10:36:20;99260.38;;;24.94;46.15
60646;BME280;46462;32.608;-117.032;2023-06-22T10:38:50;99261.27;;;24.93;46.12
60646;BME280;46462;32.608;-117.032;2023-06-22T10:41:21;99256.64;;;24.92;46.13
60646;BME280;46462;32.608;-117.032;2023-06-22T10:43:52;99254.38;;;24.91;46.11
60646;BME280;46462;32.608;-117.032;2023-06-22T10:46:24;99254.45;;;24.90;46.11
60646;BME280;46462;32.608;-117.032;2023-06-22T10:48:53;99251.65;;;24.90;46.11
60646;BME280;46462;32.608;-117.032;2023-06-22T10:51:24;99252.60;;;24.89;46.05
60646;BME280;46462;32.608;-117.032;2023-06-22T10:54:00;99254.08;;;24.91;45.99
60646;BME280;46462;32.608;-117.032;2023-06-22T10:56:25;99257.55;;;24.90;45.97
60646;BME280;46462;32.608;-117.032;2023-06-22T10:58:56;99252.57;;;24.89;45.97
60646;BME280;46462;32.608;-117.032;2023-06-22T11:01:31;99248.87;;;24.88;45.94
60646;BME280;46462;32.608;-117.032;2023-06-22T11:03:57;99255.49;;;24.87;45.94
60646;BME280;46462;32.608;-117.032;2023-06-22T11:06:28;99246.15;;;24.85;45.97
60646;BME280;46462;32.608;-117.032;2023-06-22T11:08:58;99248.05;;;24.84;45.90
60646;BME280;46462;32.608;-117.032;2023-06-22T11:11:29;99247.22;;;24.84;45.89
60646;BME280;46462;32.608;-117.032;2023-06-22T11:14:00;99250.64;;;24.87;45.84
60646;BME280;46462;32.608;-117.032;2023-06-22T11:16:30;99250.86;;;24.86;45.85
60646;BME280;46462;32.608;-117.032;2023-06-22T11:19:01;99246.38;;;24.81;45.90
60646;BME280;46462;32.608;-117.032;2023-06-22T11:21:32;99249.55;;;24.78;45.96
60646;BME280;46462;32.608;-117.032;2023-06-22T11:24:03;99243.68;;;24.76;46.00
60646;BME280;46462;32.608;-117.032;2023-06-22T11:26:34;99239.08;;;24.79;45.91
60646;BME280;46462;32.608;-117.032;2023-06-22T11:29:04;99234.00;;;24.79;45.90
60646;BME280;46462;32.608;-117.032;2023-06-22T11:31:35;99241.19;;;24.79;45.87
60646;BME280;46462;32.608;-117.032;2023-06-22T11:34:05;99240.39;;;24.75;45.93
60646;BME280;46462;32.608;-117.032;2023-06-22T11:36:41;99245.35;;;24.73;45.92
60646;BME280;46462;32.608;-117.032;2023-06-22T11:39:09;99248.15;;;24.72;45.92
60646;BME280;46462;32.608;-117.032;2023-06-22T11:41:38;99242.00;;;24.72;45.93
60646;BME280;46462;32.608;-117.032;2023-06-22T11:44:08;99246.36;;;24.71;45.93
60646;BME280;46462;32.608;-117.032;2023-06-22T11:46:39;99255.13;;;24.71;45.84
60646;BME280;46462;32.608;-117.032;2023-06-22T11:49:09;99254.74;;;24.70;45.89
60646;BME280;46462;32.608;-117.032;2023-06-22T11:51:40;99250.65;;;24.70;45.88
60646;BME280;46462;32.608;-117.032;2023-06-22T11:54:11;99260.78;;;24.69;45.85
60646;BME280;46462;32.608;-117.032;2023-06-22T11:56:42;99259.68;;;24.69;45.83
60646;BME280;46462;32.608;-117.032;2023-06-22T11:59:12;99263.96;;;24.67;45.87
60646;BME280;46462;32.608;-117.032;2023-06-22T12:01:43;99264.14;;;24.70;45.76
60646;BME280;46462;32.608;-117.032;2023-06-22T12:04:19;99266.82;;;24.69;45.68
60646;BME280;46462;32.608;-117.032;2023-06-22T12:06:44;99272.57;;;24.71;45.63
60646;BME280;46462;32.608;-117.032;2023-06-22T12:09:15;99278.48;;;24.72;45.54
60646;BME280;46462;32.608;-117.032;2023-06-22T12:11:46;99283.08;;;24.73;45.54
60646;BME280;46462;32.608;-117.032;2023-06-22T12:14:16;99285.71;;;24.72;45.61
60646;BME280;46462;32.608;-117.032;2023-06-22T12:16:47;99285.88;;;24.73;45.53
60646;BME280;46462;32.608;-117.032;2023-06-22T12:19:18;99286.08;;;24.71;45.59
60646;BME280;46462;32.608;-117.032;2023-06-22T12:21:49;99290.16;;;24.70;45.55
60646;BME280;46462;32.608;-117.032;2023-06-22T12:24:19;99296.80;;;24.68;45.57
60646;BME280;46462;32.608;-117.032;2023-06-22T12:26:50;99305.83;;;24.65;45.61
60646;BME280;46462;32.608;-117.032;2023-06-22T12:29:21;99310.07;;;24.64;45.69
60646;BME280;46462;32.608;-117.032;2023-06-22T12:31:51;99313.39;;;24.69;45.49
60646;BME280;46462;32.608;-117.032;2023-06-22T12:34:22;99311.68;;;24.67;45.47
60646;BME280;46462;32.608;-117.032;2023-06-22T12:36:53;99313.23;;;24.65;45.49
60646;BME280;46462;32.608;-117.032;2023-06-22T12:39:23;99304.80;;;24.65;45.42
60646;BME280;46462;32.608;-117.032;2023-06-22T12:41:54;99298.39;;;24.64;45.40
60646;BME280;46462;32.608;-117.032;2023-06-22T12:44:25;99293.80;;;24.62;45.37
60646;BME280;46462;32.608;-117.032;2023-06-22T12:46:55;99288.26;;;24.61;45.33